TimePDT,TemperatureF,Dew PointF,Humidity,Sea Level PressureIn,VisibilityMPH,Wind Direction,Wind SpeedMPH,Gust SpeedMPH,PrecipitationIn,Events,Conditions,WindDirDegrees,DateUTC
12:55 AM,63.0,59.0,87,29.91,10.0,Calm,Calm,-,N/A,,Clear,0,2013-08-29 07:55:00
1:55 AM,63.0,59.0,87,29.91,10.0,WNW,8.1,-,N/A,,Clear,300,2013-08-29 08:55:00
2:55 AM,63.0,57.9,84,29.91,10.0,Calm,Calm,-,N/A,,Clear,0,2013-08-29 09:55:00
3:55 AM,62.1,57.9,86,29.90,10.0,Calm,Calm,-,N/A,,Clear,0,2013-08-29 10:55:00
4:55 AM,62.1,57.9,86,29.91,10.0,Calm,Calm,-,N/A,,Clear,0,2013-08-29 11:55:00
5:55 AM,62.1,57.9,86,29.92,10.0,Calm,Calm,-,N/A,,Clear,0,2013-08-29 12:55:00
6:55 AM,62.1,57.9,86,29.95,10.0,Calm,Calm,-,N/A,,Clear,0,2013-08-29 13:55:00
7:55 AM,66.0,59.0,78,29.95,10.0,Calm,Calm,-,N/A,,Clear,0,2013-08-29 14:55:00
8:55 AM,71.1,59.0,66,29.95,10.0,Calm,Calm,-,N/A,,Clear,0,2013-08-29 15:55:00
9:55 AM,77.0,57.9,52,29.96,10.0,SW,3.5,-,N/A,,Clear,220,2013-08-29 16:55:00
10:55 AM,79.0,60.1,52,29.95,10.0,WSW,4.6,-,N/A,,Clear,250,2013-08-29 17:55:00
11:55 AM,81.0,59.0,47,29.94,10.0,WSW,8.1,-,N/A,,Clear,250,2013-08-29 18:55:00
12:55 PM,82.9,57.9,42,29.94,10.0,West,9.2,-,N/A,,Clear,270,2013-08-29 19:55:00
1:55 PM,84.0,55.9,38,29.93,10.0,West,8.1,-,N/A,,Clear,260,2013-08-29 20:55:00
2:55 PM,82.9,60.1,46,29.91,10.0,WSW,6.9,-,N/A,,Clear,250,2013-08-29 21:55:00
3:55 PM,81.0,57.9,45,29.90,10.0,WSW,6.9,-,N/A,,Clear,240,2013-08-29 22:55:00
4:55 PM,81.0,55.9,42,29.90,10.0,SW,8.1,-,N/A,,Clear,230,2013-08-29 23:55:00
5:55 PM,77.0,57.9,52,29.89,10.0,SW,4.6,-,N/A,,Clear,220,2013-08-30 00:55:00
6:55 PM,73.0,59.0,61,29.90,10.0,WSW,6.9,-,N/A,,Clear,250,2013-08-30 01:55:00
7:55 PM,69.1,59.0,70,29.92,10.0,West,4.6,-,N/A,,Clear,270,2013-08-30 02:55:00
8:55 PM,68.0,60.1,76,29.94,10.0,West,3.5,-,N/A,,Clear,280,2013-08-30 03:55:00
9:55 PM,68.0,60.1,76,29.94,10.0,WNW,4.6,-,N/A,,Clear,290,2013-08-30 04:55:00
10:55 PM,68.0,60.1,76,29.94,10.0,WNW,4.6,-,N/A,,Clear,300,2013-08-30 05:55:00
11:55 PM,66.9,59.0,76,29.94,10.0,WNW,4.6,-,N/A,,Clear,300,2013-08-30 06:55:00